Chadstone Weather > Observations for 01/03/21

Select Day:



Observations
Time Temp Hum DP Wind Gust Dir Rain >9am Press
C % C kph kph mm hPa
10:00 18.5 80 15.0 5.7 14.8 WNW 0.0 996.4
10:10 18.4 79 14.7 4.0 13.3 SW 0.0 996.6
10:20 18.3 79 14.6 4.4 13.3 W 0.0 996.7
10:30 18.6 80 15.1 2.2 8.6 SSW 0.0 996.7
10:40 18.9 79 15.2 4.5 12.2 SSW 0.0 996.6
10:50 19.5 77 15.4 2.9 13.3 SW 0.0 996.8
11:00 19.7 75 15.2 3.6 13.3 SW 0.0 996.6
11:10 19.9 75 15.4 6.3 14.8 SW 0.0 996.6
11:20 20.0 74 15.2 4.5 12.2 SW 0.0 996.7
11:30 20.3 73 15.3 5.6 14.8 WSW 0.0 996.7
11:40 20.5 73 15.5 4.9 17.3 SW 0.0 996.7
11:50 20.7 71 15.3 6.2 19.4 WSW 0.0 996.7
12:00 20.6 70 15.0 5.4 15.8 W 0.0 996.7
12:10 20.7 70 15.0 2.8 13.3 SSW 0.0 996.7
12:20 20.5 68 14.4 3.6 13.3 S 0.0 996.5
12:30 21.0 67 14.7 4.4 17.3 S 0.0 996.5
12:40 21.2 65 14.4 2.9 13.3 WSW 0.0 996.5
12:50 21.1 63 13.8 5.1 15.8 W 0.0 996.5
13:00 21.0 61 13.2 5.9 15.8 W 0.0 996.4
13:10 21.4 59 13.1 3.3 13.3 W 0.0 996.6
13:20 21.6 57 12.7 3.8 15.8 SW 0.0 996.5
13:30 21.7 56 12.6 5.6 14.8 WSW 0.0 996.3
13:40 22.6 52 12.3 6.0 19.4 NW 0.0 996.3
13:50 23.2 50 12.2 6.7 17.3 WSW 0.0 996.3
14:00 22.7 52 12.4 5.1 17.3 SSW 0.0 996.3
14:10 22.4 52 12.1 4.3 11.2 SW 0.0 996.4
14:20 22.8 53 12.7 5.8 13.3 WSW 0.0 996.4
14:30 22.6 53 12.6 7.7 17.3 W 0.0 996.3
14:40 22.6 54 12.8 6.4 17.3 W 0.0 996.2
14:50 22.1 60 14.0 5.8 17.3 W 0.0 996.5
15:00 21.5 64 14.4 5.8 15.8 SW 0.0 996.3
15:10 21.3 65 14.5 6.2 18.4 WSW 0.0 996.2
15:20 21.4 64 14.3 4.1 13.3 SW 0.0 996.2
15:30 21.4 64 14.3 4.7 25.6 S 0.0 996.2
15:40 21.1 65 14.3 4.8 25.6 SE 0.0 996.2
15:50 21.2 66 14.6 5.4 17.3 SSE 0.0 996.2
16:00 21.1 64 14.0 4.6 22.0 ENE 0.0 996.3
16:10 20.8 63 13.5 5.1 15.8 SSE 0.0 996.2
16:20 20.6 58 12.1 6.5 20.9 S 0.0 996.2
16:30 20.8 55 11.4 5.4 14.8 SSW 0.0 996.4
16:40 21.1 54 11.4 3.5 18.4 W 0.0 996.6
16:50 21.1 53 11.2 5.1 17.3 SSE 0.0 996.7
17:00 21.0 60 13.0 4.8 18.4 S 0.0 997.0
17:10 20.3 67 14.0 6.2 29.5 SSE 0.0 997.1
17:20 19.8 70 14.2 5.1 17.3 SSE 0.0 997.1
17:30 19.0 72 13.8 7.2 23.4 SSW 0.0 997.3
17:40 18.6 75 14.1 6.4 22.0 WNW 0.0 997.4
17:50 18.3 75 13.8 5.9 22.0 NW 0.0 997.6
18:00 18.4 75 13.9 5.9 18.4 SSW 0.0 997.7
18:10 18.1 75 13.6 7.0 18.4 SE 0.0 997.8
18:20 17.8 74 13.1 5.9 19.4 SSW 0.0 997.8
18:30 17.6 73 12.7 5.7 20.9 S 0.0 998.0
18:40 17.4 74 12.7 7.3 25.6 S 0.0 998.0
18:50 17.4 72 12.3 5.7 17.3 SSE 0.0 998.4
19:00 17.5 70 12.0 4.1 22.0 SSW 0.0 998.5
19:10 17.2 68 11.3 5.8 24.5 SSW 0.0 998.7
19:20 17.3 68 11.3 5.7 22.0 SSE 0.0 998.8
19:30 17.1 66 10.7 5.4 17.3 SW 0.0 999.0
19:40 17.1 66 10.7 6.2 24.5 SSW 0.0 999.2
19:50 16.9 70 11.4 4.0 18.4 S 0.0 999.6
20:00 16.7 71 11.4 4.5 19.4 SW 0.0 999.7
20:10 16.5 71 11.2 6.0 22.0 W 0.0 999.9
20:20 16.4 70 10.9 4.8 17.3 S 0.0 1000.2
20:30 16.2 66 9.8 5.1 14.8 SW 0.0 1000.4
20:40 16.3 65 9.7 3.7 15.8 SW 0.0 1000.9
20:50 16.2 65 9.6 3.6 13.3 S 0.0 1001.3
21:00 16.1 64 9.3 4.6 14.8 SW 0.0 1001.7
21:10 16.0 62 8.7 4.3 22.0 SSW 0.0 1002.0
21:20 15.9 59 7.9 4.3 22.0 S 0.0 1002.1
21:30 15.9 57 7.4 4.1 18.4 SSW 0.0 1002.3
21:40 15.9 57 7.4 3.5 12.2 S 0.0 1002.3
21:50 15.7 62 8.4 5.3 17.3 SSW 0.0 1002.3
22:00 15.6 64 8.8 4.8 18.4 WSW 0.0 1001.9
22:10 15.6 63 8.6 3.0 18.4 S 0.0 1002.6
22:20 15.6 62 8.4 3.5 11.2 S 0.0 1002.8
22:30 15.6 61 8.1 2.1 9.7 SSW 0.0 1001.5
22:40 15.6 61 8.1 3.3 15.8 SW 0.0 1002.0
22:50 15.5 58 7.3 3.4 15.8 S 0.0 1001.2
23:00 15.5 58 7.3 1.3 6.1 SSW 0.0 1001.1
23:10 15.4 55 6.4 2.0 8.6 S 0.0 1001.0
23:20 15.3 55 6.3 1.5 6.1 SSW 0.0 1000.5
23:30 15.3 57 6.8 1.5 7.2 S 0.0 1000.9
23:40 15.4 59 7.4 1.3 9.7 WSW 0.0 1000.3
23:50 15.5 63 8.5 1.2 12.2 SSW 0.0 1000.8